KWRL/WRL METAR and TAF weather

Enter ICAO airport designator
Station Type Date Time Source
KWRL METAR 2019/12/09 05:53 UTC NOAA

KWRL 090553Z AUTO 10SM OVC070 M06/M10 A2997 RMK AO2 SLP199 60000 T10561100 10000 21061 51031


Station Type Date Time Source
KWRL Decoded METAR 2019/12/09 05:53 UTC NOAA

WORLAND MUNICIPAL AIRPORT, WY, United States (KWRL) 43-58N 107-57W 1271M
Dec 09, 2019 - 12:53 AM EST / 2019.12.09 0553 UTC
Visibility: 10 mile(s):0
Sky conditions: overcast
Temperature: 21.9 F (-5.6 C)
Dew Point: 14.0 F (-10.0 C)
Relative Humidity: 71%
Pressure (altimeter): 29.97 in. Hg (1014 hPa)
Pressure tendency: 0.09 inches (3.1 hPa) higher than three hours ago
ob: KWRL 090553Z AUTO 10SM OVC070 M06/M10 A2997 RMK AO2 SLP199 60000 T10561100 10000 21061 51031
cycle: 6

Station Type Date Time Source
KWRL TAF 2019/12/09 06:30 UTC NOAA

TAF KWRL 090526Z 0906/1006 33008KT P6SM SCT015 OVC028
FM090900 VRB06KT P6SM SCT100

Example: see airport list